sensor_id;sensor_type;location;lat;lon;timestamp;pressure;altitude;pressure_sealevel;temperature;humidity
48364;BME280;34170;54.364;18.582;2023-02-12T00:01:25;63521.91;;;-146.14;100.00
48364;BME280;34170;54.364;18.582;2023-02-12T00:03:55;63521.91;;;-146.14;100.00
48364;BME280;34170;54.364;18.582;2023-02-12T00:06:23;63521.91;;;-146.14;100.00
48364;BME280;34170;54.364;18.582;2023-02-12T00:08:52;63521.91;;;-146.14;100.00
48364;BME280;34170;54.364;18.582;2023-02-12T00:11:29;63521.91;;;-146.14;100.00
48364;BME280;34170;54.364;18.582;2023-02-12T00:13:57;63521.91;;;-146.14;100.00
48364;BME280;34170;54.364;18.582;2023-02-12T00:16:26;63521.91;;;-146.14;100.00
48364;BME280;34170;54.364;18.582;2023-02-12T00:18:55;63521.91;;;-146.14;100.00
48364;BME280;34170;54.364;18.582;2023-02-12T00:21:24;63521.91;;;-146.14;100.00
48364;BME280;34170;54.364;18.582;2023-02-12T00:23:51;63521.91;;;-146.14;100.00
48364;BME280;34170;54.364;18.582;2023-02-12T00:26:20;63521.91;;;-146.14;100.00
48364;BME280;34170;54.364;18.582;2023-02-12T00:28:49;63521.91;;;-146.14;100.00
48364;BME280;34170;54.364;18.582;2023-02-12T00:31:20;63521.91;;;-146.14;100.00
48364;BME280;34170;54.364;18.582;2023-02-12T00:33:48;63521.91;;;-146.14;100.00
48364;BME280;34170;54.364;18.582;2023-02-12T00:36:18;63521.91;;;-146.14;100.00
48364;BME280;34170;54.364;18.582;2023-02-12T00:38:46;63521.91;;;-146.14;100.00
48364;BME280;34170;54.364;18.582;2023-02-12T00:41:14;63521.91;;;-146.14;100.00
48364;BME280;34170;54.364;18.582;2023-02-12T00:43:41;63521.91;;;-146.14;100.00
48364;BME280;34170;54.364;18.582;2023-02-12T00:46:09;63521.91;;;-146.14;100.00
48364;BME280;34170;54.364;18.582;2023-02-12T00:48:37;63521.91;;;-146.14;100.00
48364;BME280;34170;54.364;18.582;2023-02-12T00:51:05;63521.91;;;-146.14;100.00
48364;BME280;34170;54.364;18.582;2023-02-12T00:53:33;63521.91;;;-146.14;100.00
48364;BME280;34170;54.364;18.582;2023-02-12T00:56:01;63521.91;;;-146.14;100.00
48364;BME280;34170;54.364;18.582;2023-02-12T00:58:28;63521.91;;;-146.14;100.00
48364;BME280;34170;54.364;18.582;2023-02-12T01:00:56;63521.91;;;-146.14;100.00
48364;BME280;34170;54.364;18.582;2023-02-12T01:03:24;63521.91;;;-146.14;100.00
48364;BME280;34170;54.364;18.582;2023-02-12T01:05:52;63521.91;;;-146.14;100.00
48364;BME280;34170;54.364;18.582;2023-02-12T01:08:20;63521.91;;;-146.14;100.00
48364;BME280;34170;54.364;18.582;2023-02-12T01:11:01;63521.91;;;-146.14;100.00
48364;BME280;34170;54.364;18.582;2023-02-12T01:13:30;63521.91;;;-146.14;100.00
48364;BME280;34170;54.364;18.582;2023-02-12T01:16:20;63521.91;;;-146.14;100.00
48364;BME280;34170;54.364;18.582;2023-02-12T01:18:50;63521.91;;;-146.14;100.00
48364;BME280;34170;54.364;18.582;2023-02-12T01:21:24;63521.91;;;-146.14;100.00
48364;BME280;34170;54.364;18.582;2023-02-12T01:23:52;63521.91;;;-146.14;100.00
48364;BME280;34170;54.364;18.582;2023-02-12T01:26:20;63521.91;;;-146.14;100.00
48364;BME280;34170;54.364;18.582;2023-02-12T01:28:58;63521.91;;;-146.14;100.00
48364;BME280;34170;54.364;18.582;2023-02-12T01:31:31;63521.91;;;-146.14;100.00
48364;BME280;34170;54.364;18.582;2023-02-12T01:33:59;63521.91;;;-146.14;100.00
48364;BME280;34170;54.364;18.582;2023-02-12T01:36:28;63521.91;;;-146.14;100.00
48364;BME280;34170;54.364;18.582;2023-02-12T01:38:56;63521.91;;;-146.14;100.00
48364;BME280;34170;54.364;18.582;2023-02-12T01:41:29;63521.91;;;-146.14;100.00
48364;BME280;34170;54.364;18.582;2023-02-12T01:46:37;63521.91;;;-146.14;100.00
48364;BME280;34170;54.364;18.582;2023-02-12T01:49:19;63521.91;;;-146.14;100.00
48364;BME280;34170;54.364;18.582;2023-02-12T01:51:54;63521.91;;;-146.14;100.00
48364;BME280;34170;54.364;18.582;2023-02-12T01:54:24;63521.91;;;-146.14;100.00
48364;BME280;34170;54.364;18.582;2023-02-12T01:56:53;63521.91;;;-146.14;100.00
48364;BME280;34170;54.364;18.582;2023-02-12T01:59:21;63521.91;;;-146.14;100.00
48364;BME280;34170;54.364;18.582;2023-02-12T02:01:49;63521.91;;;-146.14;100.00
48364;BME280;34170;54.364;18.582;2023-02-12T02:04:26;63521.91;;;-146.14;100.00
48364;BME280;34170;54.364;18.582;2023-02-12T02:06:58;63521.91;;;-146.14;100.00
48364;BME280;34170;54.364;18.582;2023-02-12T02:09:26;63521.91;;;-146.14;100.00
48364;BME280;34170;54.364;18.582;2023-02-12T02:11:55;63521.91;;;-146.14;100.00
48364;BME280;34170;54.364;18.582;2023-02-12T02:14:42;63521.91;;;-146.14;100.00
48364;BME280;34170;54.364;18.582;2023-02-12T02:22:38;63521.91;;;-146.14;100.00
48364;BME280;34170;54.364;18.582;2023-02-12T02:35:39;63521.91;;;-146.14;100.00
48364;BME280;34170;54.364;18.582;2023-02-12T02:43:52;63521.91;;;-146.14;100.00
48364;BME280;34170;54.364;18.582;2023-02-12T02:49:03;63521.91;;;-146.14;100.00
48364;BME280;34170;54.364;18.582;2023-02-12T02:51:36;63521.91;;;-146.14;100.00
48364;BME280;34170;54.364;18.582;2023-02-12T02:54:17;63521.91;;;-146.14;100.00
48364;BME280;34170;54.364;18.582;2023-02-12T02:56:48;63521.91;;;-146.14;100.00
48364;BME280;34170;54.364;18.582;2023-02-12T02:59:22;63521.91;;;-146.14;100.00
48364;BME280;34170;54.364;18.582;2023-02-12T03:01:56;63521.91;;;-146.14;100.00
48364;BME280;34170;54.364;18.582;2023-02-12T03:04:30;63521.91;;;-146.14;100.00
48364;BME280;34170;54.364;18.582;2023-02-12T03:07:10;63521.91;;;-146.14;100.00
48364;BME280;34170;54.364;18.582;2023-02-12T03:09:43;63521.91;;;-146.14;100.00
48364;BME280;34170;54.364;18.582;2023-02-12T03:12:25;63521.91;;;-146.14;100.00
48364;BME280;34170;54.364;18.582;2023-02-12T03:15:11;63521.91;;;-146.14;100.00
48364;BME280;34170;54.364;18.582;2023-02-12T03:17:43;63521.91;;;-146.14;100.00
48364;BME280;34170;54.364;18.582;2023-02-12T03:20:18;63521.91;;;-146.14;100.00
48364;BME280;34170;54.364;18.582;2023-02-12T03:23:16;63521.91;;;-146.14;100.00
48364;BME280;34170;54.364;18.582;2023-02-12T03:31:06;63521.91;;;-146.14;100.00
48364;BME280;34170;54.364;18.582;2023-02-12T03:36:19;63521.91;;;-146.14;100.00
48364;BME280;34170;54.364;18.582;2023-02-12T03:38:51;63521.91;;;-146.14;100.00
48364;BME280;34170;54.364;18.582;2023-02-12T03:41:21;63521.91;;;-146.14;100.00
48364;BME280;34170;54.364;18.582;2023-02-12T03:49:22;63521.91;;;-146.14;100.00
48364;BME280;34170;54.364;18.582;2023-02-12T03:51:51;63521.91;;;-146.14;100.00
48364;BME280;34170;54.364;18.582;2023-02-12T03:54:20;63521.91;;;-146.14;100.00
48364;BME280;34170;54.364;18.582;2023-02-12T03:57:21;63521.91;;;-146.14;100.00
48364;BME280;34170;54.364;18.582;2023-02-12T03:59:50;63521.91;;;-146.14;100.00
48364;BME280;34170;54.364;18.582;2023-02-12T04:02:18;63521.91;;;-146.14;100.00
48364;BME280;34170;54.364;18.582;2023-02-12T04:04:46;63521.91;;;-146.14;100.00
48364;BME280;34170;54.364;18.582;2023-02-12T04:07:15;63521.91;;;-146.14;100.00
48364;BME280;34170;54.364;18.582;2023-02-12T04:09:42;63521.91;;;-146.14;100.00
48364;BME280;34170;54.364;18.582;2023-02-12T04:13:00;63521.91;;;-146.14;100.00
48364;BME280;34170;54.364;18.582;2023-02-12T04:15:45;63521.91;;;-146.14;100.00
48364;BME280;34170;54.364;18.582;2023-02-12T04:26:22;63521.91;;;-146.14;100.00
48364;BME280;34170;54.364;18.582;2023-02-12T04:32:19;63521.91;;;-146.14;100.00
48364;BME280;34170;54.364;18.582;2023-02-12T04:35:01;63521.91;;;-146.14;100.00
48364;BME280;34170;54.364;18.582;2023-02-12T04:37:38;63521.91;;;-146.14;100.00
48364;BME280;34170;54.364;18.582;2023-02-12T04:40:11;63521.91;;;-146.14;100.00
48364;BME280;34170;54.364;18.582;2023-02-12T04:42:44;63521.91;;;-146.14;100.00
48364;BME280;34170;54.364;18.582;2023-02-12T04:45:17;63521.91;;;-146.14;100.00
48364;BME280;34170;54.364;18.582;2023-02-12T04:47:46;63521.91;;;-146.14;100.00
48364;BME280;34170;54.364;18.582;2023-02-12T04:50:14;63521.91;;;-146.14;100.00
48364;BME280;34170;54.364;18.582;2023-02-12T04:52:41;63521.91;;;-146.14;100.00
48364;BME280;34170;54.364;18.582;2023-02-12T04:55:09;63521.91;;;-146.14;100.00
48364;BME280;34170;54.364;18.582;2023-02-12T04:57:36;63521.91;;;-146.14;100.00
48364;BME280;34170;54.364;18.582;2023-02-12T05:00:05;63521.91;;;-146.14;100.00
48364;BME280;34170;54.364;18.582;2023-02-12T05:02:33;63521.91;;;-146.14;100.00
48364;BME280;34170;54.364;18.582;2023-02-12T05:05:00;63521.91;;;-146.14;100.00
48364;BME280;34170;54.364;18.582;2023-02-12T05:07:28;63521.91;;;-146.14;100.00
48364;BME280;34170;54.364;18.582;2023-02-12T05:09:55;63521.91;;;-146.14;100.00
48364;BME280;34170;54.364;18.582;2023-02-12T05:12:23;63521.91;;;-146.14;100.00
48364;BME280;34170;54.364;18.582;2023-02-12T05:14:50;63521.91;;;-146.14;100.00
48364;BME280;34170;54.364;18.582;2023-02-12T05:17:21;63521.91;;;-146.14;100.00
48364;BME280;34170;54.364;18.582;2023-02-12T05:19:49;63521.91;;;-146.14;100.00
48364;BME280;34170;54.364;18.582;2023-02-12T05:22:16;63521.91;;;-146.14;100.00
48364;BME280;34170;54.364;18.582;2023-02-12T05:24:44;63521.91;;;-146.14;100.00
48364;BME280;34170;54.364;18.582;2023-02-12T05:27:11;63521.91;;;-146.14;100.00
48364;BME280;34170;54.364;18.582;2023-02-12T05:29:40;63521.91;;;-146.14;100.00
48364;BME280;34170;54.364;18.582;2023-02-12T05:32:07;63521.91;;;-146.14;100.00
48364;BME280;34170;54.364;18.582;2023-02-12T05:34:35;63521.91;;;-146.14;100.00
48364;BME280;34170;54.364;18.582;2023-02-12T05:37:03;63521.91;;;-146.14;100.00
48364;BME280;34170;54.364;18.582;2023-02-12T05:39:30;63521.91;;;-146.14;100.00
48364;BME280;34170;54.364;18.582;2023-02-12T05:41:57;63521.91;;;-146.14;100.00
48364;BME280;34170;54.364;18.582;2023-02-12T05:44:25;63521.91;;;-146.14;100.00
48364;BME280;34170;54.364;18.582;2023-02-12T05:46:52;63521.91;;;-146.14;100.00
48364;BME280;34170;54.364;18.582;2023-02-12T05:49:20;63521.91;;;-146.14;100.00
48364;BME280;34170;54.364;18.582;2023-02-12T05:51:48;63521.91;;;-146.14;100.00
48364;BME280;34170;54.364;18.582;2023-02-12T05:54:15;63521.91;;;-146.14;100.00
48364;BME280;34170;54.364;18.582;2023-02-12T05:56:45;63521.91;;;-146.14;100.00
48364;BME280;34170;54.364;18.582;2023-02-12T05:59:18;63521.91;;;-146.14;100.00
48364;BME280;34170;54.364;18.582;2023-02-12T06:01:48;63521.91;;;-146.14;100.00
48364;BME280;34170;54.364;18.582;2023-02-12T06:04:25;63521.91;;;-146.14;100.00
48364;BME280;34170;54.364;18.582;2023-02-12T06:06:53;63521.91;;;-146.14;100.00
48364;BME280;34170;54.364;18.582;2023-02-12T06:09:22;63521.91;;;-146.14;100.00
48364;BME280;34170;54.364;18.582;2023-02-12T06:11:50;63521.91;;;-146.14;100.00
48364;BME280;34170;54.364;18.582;2023-02-12T06:14:19;63521.91;;;-146.14;100.00
48364;BME280;34170;54.364;18.582;2023-02-12T06:16:49;63521.91;;;-146.14;100.00
48364;BME280;34170;54.364;18.582;2023-02-12T06:19:18;63521.91;;;-146.14;100.00
48364;BME280;34170;54.364;18.582;2023-02-12T06:21:46;63521.91;;;-146.14;100.00
48364;BME280;34170;54.364;18.582;2023-02-12T06:24:15;63521.91;;;-146.14;100.00
48364;BME280;34170;54.364;18.582;2023-02-12T06:26:44;63521.91;;;-146.14;100.00
48364;BME280;34170;54.364;18.582;2023-02-12T06:29:12;63521.91;;;-146.14;100.00
48364;BME280;34170;54.364;18.582;2023-02-12T06:31:40;63521.91;;;-146.14;100.00
48364;BME280;34170;54.364;18.582;2023-02-12T06:34:10;63521.91;;;-146.14;100.00
48364;BME280;34170;54.364;18.582;2023-02-12T06:36:40;63521.91;;;-146.14;100.00
48364;BME280;34170;54.364;18.582;2023-02-12T06:39:08;63521.91;;;-146.14;100.00
48364;BME280;34170;54.364;18.582;2023-02-12T06:41:36;63521.91;;;-146.14;100.00
48364;BME280;34170;54.364;18.582;2023-02-12T06:44:05;63521.91;;;-146.14;100.00
48364;BME280;34170;54.364;18.582;2023-02-12T06:46:32;63521.91;;;-146.14;100.00
48364;BME280;34170;54.364;18.582;2023-02-12T06:49:00;63521.91;;;-146.14;100.00
48364;BME280;34170;54.364;18.582;2023-02-12T06:51:28;63521.91;;;-146.14;100.00
48364;BME280;34170;54.364;18.582;2023-02-12T06:53:56;63521.91;;;-146.14;100.00
48364;BME280;34170;54.364;18.582;2023-02-12T06:56:25;63521.91;;;-146.14;100.00
48364;BME280;34170;54.364;18.582;2023-02-12T06:58:58;63521.91;;;-146.14;100.00
48364;BME280;34170;54.364;18.582;2023-02-12T07:01:28;63521.91;;;-146.14;100.00
48364;BME280;34170;54.364;18.582;2023-02-12T07:04:01;63521.91;;;-146.14;100.00
48364;BME280;34170;54.364;18.582;2023-02-12T07:06:32;63521.91;;;-146.14;100.00
48364;BME280;34170;54.364;18.582;2023-02-12T07:09:00;63521.91;;;-146.14;100.00
48364;BME280;34170;54.364;18.582;2023-02-12T07:11:33;63521.91;;;-146.14;100.00
48364;BME280;34170;54.364;18.582;2023-02-12T07:16:05;102091.84;;;7.94;59.95
48364;BME280;34170;54.364;18.582;2023-02-12T07:18:35;102087.91;;;8.65;55.46
48364;BME280;34170;54.364;18.582;2023-02-12T07:21:04;102084.09;;;8.69;54.50
48364;BME280;34170;54.364;18.582;2023-02-12T07:23:33;102078.50;;;9.04;53.89
48364;BME280;34170;54.364;18.582;2023-02-12T07:26:03;102076.06;;;9.44;50.65
48364;BME280;34170;54.364;18.582;2023-02-12T07:28:32;102074.94;;;9.62;49.84
48364;BME280;34170;54.364;18.582;2023-02-12T07:31:09;102078.28;;;9.95;50.17
48364;BME280;34170;54.364;18.582;2023-02-12T07:33:37;102085.00;;;10.58;47.98
48364;BME280;34170;54.364;18.582;2023-02-12T07:36:08;102099.44;;;10.28;47.72
48364;BME280;34170;54.364;18.582;2023-02-12T07:38:36;102084.88;;;10.32;47.59
48364;BME280;34170;54.364;18.582;2023-02-12T07:41:11;102086.25;;;10.52;47.80
48364;BME280;34170;54.364;18.582;2023-02-12T07:43:40;102085.75;;;10.60;47.58
48364;BME280;34170;54.364;18.582;2023-02-12T07:46:09;102094.97;;;9.71;48.83
48364;BME280;34170;54.364;18.582;2023-02-12T07:48:37;102087.97;;;9.83;48.89
48364;BME280;34170;54.364;18.582;2023-02-12T07:51:10;102089.50;;;9.58;49.54
48364;BME280;34170;54.364;18.582;2023-02-12T07:53:38;102076.59;;;9.20;50.21
48364;BME280;34170;54.364;18.582;2023-02-12T07:58:37;102073.75;;;9.23;50.68
48364;BME280;34170;54.364;18.582;2023-02-12T08:03:49;102088.56;;;9.73;48.99
48364;BME280;34170;54.364;18.582;2023-02-12T08:06:24;102077.41;;;9.51;49.70
48364;BME280;34170;54.364;18.582;2023-02-12T08:08:53;102080.47;;;10.02;48.94
48364;BME280;34170;54.364;18.582;2023-02-12T08:11:21;102080.19;;;9.92;47.15
48364;BME280;34170;54.364;18.582;2023-02-12T08:13:49;102071.59;;;9.59;48.76
48364;BME280;34170;54.364;18.582;2023-02-12T08:16:19;102066.59;;;9.08;50.57
48364;BME280;34170;54.364;18.582;2023-02-12T08:18:48;102086.41;;;9.21;51.12
48364;BME280;34170;54.364;18.582;2023-02-12T08:21:18;102092.28;;;9.12;51.00
48364;BME280;34170;54.364;18.582;2023-02-12T08:23:46;102089.03;;;9.95;49.97
48364;BME280;34170;54.364;18.582;2023-02-12T08:26:28;102090.78;;;10.23;48.44
48364;BME280;34170;54.364;18.582;2023-02-12T08:29:01;102091.03;;;10.61;46.93
48364;BME280;34170;54.364;18.582;2023-02-12T08:31:31;102091.13;;;10.33;47.51
48364;BME280;34170;54.364;18.582;2023-02-12T08:34:00;102098.88;;;10.37;47.55
48364;BME280;34170;54.364;18.582;2023-02-12T08:36:30;102090.13;;;10.75;47.24
48364;BME280;34170;54.364;18.582;2023-02-12T08:39:01;102077.38;;;11.17;46.50
48364;BME280;34170;54.364;18.582;2023-02-12T08:41:29;102087.47;;;10.88;47.17
48364;BME280;34170;54.364;18.582;2023-02-12T08:43:59;102073.41;;;10.70;47.01
48364;BME280;34170;54.364;18.582;2023-02-12T08:46:29;102073.16;;;10.19;47.52
48364;BME280;34170;54.364;18.582;2023-02-12T08:48:59;102080.00;;;9.67;50.21
48364;BME280;34170;54.364;18.582;2023-02-12T08:51:30;102073.25;;;9.16;51.05
48364;BME280;34170;54.364;18.582;2023-02-12T08:54:01;102069.41;;;9.21;52.04
48364;BME280;34170;54.364;18.582;2023-02-12T08:56:32;102065.44;;;9.12;52.34
48364;BME280;34170;54.364;18.582;2023-02-12T08:59:01;102054.72;;;9.12;52.15
48364;BME280;34170;54.364;18.582;2023-02-12T09:01:32;102069.16;;;8.95;53.28
48364;BME280;34170;54.364;18.582;2023-02-12T09:04:00;102067.06;;;8.70;53.64
48364;BME280;34170;54.364;18.582;2023-02-12T09:06:28;102069.97;;;8.81;53.63
48364;BME280;34170;54.364;18.582;2023-02-12T09:08:58;102069.72;;;9.16;52.36
48364;BME280;34170;54.364;18.582;2023-02-12T09:11:27;102070.16;;;8.78;53.10
48364;BME280;34170;54.364;18.582;2023-02-12T09:14:00;102065.78;;;8.45;55.12
48364;BME280;34170;54.364;18.582;2023-02-12T09:16:32;102063.03;;;8.47;55.01
48364;BME280;34170;54.364;18.582;2023-02-12T09:19:00;102073.28;;;9.01;54.40
48364;BME280;34170;54.364;18.582;2023-02-12T09:21:28;102049.97;;;9.31;52.60
48364;BME280;34170;54.364;18.582;2023-02-12T09:23:55;102055.69;;;9.11;53.49
48364;BME280;34170;54.364;18.582;2023-02-12T09:26:24;102069.41;;;9.21;52.72
48364;BME280;34170;54.364;18.582;2023-02-12T09:28:54;102067.38;;;9.10;52.94
48364;BME280;34170;54.364;18.582;2023-02-12T09:31:24;102068.63;;;9.19;52.40
48364;BME280;34170;54.364;18.582;2023-02-12T09:33:56;102076.56;;;9.06;53.70
48364;BME280;34170;54.364;18.582;2023-02-12T09:36:24;102073.97;;;9.49;52.49
48364;BME280;34170;54.364;18.582;2023-02-12T09:38:52;102073.06;;;10.20;50.64
48364;BME280;34170;54.364;18.582;2023-02-12T09:47:02;102068.75;;;10.32;49.66
48364;BME280;34170;54.364;18.582;2023-02-12T09:52:18;102053.53;;;9.75;51.47
48364;BME280;34170;54.364;18.582;2023-02-12T09:54:47;102062.44;;;10.04;51.44
48364;BME280;34170;54.364;18.582;2023-02-12T10:00:13;102055.25;;;9.62;53.21
48364;BME280;34170;54.364;18.582;2023-02-12T10:02:41;102050.44;;;8.79;54.81
48364;BME280;34170;54.364;18.582;2023-02-12T10:05:30;102042.44;;;8.47;56.26
48364;BME280;34170;54.364;18.582;2023-02-12T10:08:24;102056.88;;;8.61;56.29
48364;BME280;34170;54.364;18.582;2023-02-12T10:13:39;102053.53;;;8.87;56.22
48364;BME280;34170;54.364;18.582;2023-02-12T10:21:40;102044.59;;;8.56;55.74
48364;BME280;34170;54.364;18.582;2023-02-12T10:27:14;102030.66;;;8.66;55.92
48364;BME280;34170;54.364;18.582;2023-02-12T10:29:44;102028.66;;;9.00;54.94
48364;BME280;34170;54.364;18.582;2023-02-12T10:32:27;102019.91;;;8.96;55.09
48364;BME280;34170;54.364;18.582;2023-02-12T10:34:56;102012.00;;;8.48;56.95
48364;BME280;34170;54.364;18.582;2023-02-12T10:37:36;102013.66;;;8.95;55.43
48364;BME280;34170;54.364;18.582;2023-02-12T10:40:22;102010.19;;;9.52;53.96
48364;BME280;34170;54.364;18.582;2023-02-12T10:42:51;101994.72;;;9.56;52.69
48364;BME280;34170;54.364;18.582;2023-02-12T10:45:28;102005.16;;;10.31;51.42
48364;BME280;34170;54.364;18.582;2023-02-12T10:50:40;101996.22;;;9.89;51.54
48364;BME280;34170;54.364;18.582;2023-02-12T10:53:22;101994.22;;;9.64;52.06
48364;BME280;34170;54.364;18.582;2023-02-12T10:56:06;101991.47;;;9.51;51.98
48364;BME280;34170;54.364;18.582;2023-02-12T10:58:51;101992.59;;;9.76;51.77
48364;BME280;34170;54.364;18.582;2023-02-12T11:01:26;101979.84;;;9.79;52.25
48364;BME280;34170;54.364;18.582;2023-02-12T11:03:56;102004.47;;;10.55;50.61
48364;BME280;34170;54.364;18.582;2023-02-12T11:06:26;101994.31;;;10.85;49.61
48364;BME280;34170;54.364;18.582;2023-02-12T11:08:54;101994.84;;;10.65;49.73
48364;BME280;34170;54.364;18.582;2023-02-12T11:11:30;102004.22;;;10.72;49.66
48364;BME280;34170;54.364;18.582;2023-02-12T11:14:15;101994.06;;;10.63;49.97
48364;BME280;34170;54.364;18.582;2023-02-12T11:16:58;101986.28;;;11.11;48.55
48364;BME280;34170;54.364;18.582;2023-02-12T11:19:29;101983.38;;;11.14;49.24
48364;BME280;34170;54.364;18.582;2023-02-12T11:22:07;101970.75;;;10.36;51.93
48364;BME280;34170;54.364;18.582;2023-02-12T11:24:36;101970.31;;;10.82;50.31
48364;BME280;34170;54.364;18.582;2023-02-12T11:27:20;101970.66;;;9.96;52.65
48364;BME280;34170;54.364;18.582;2023-02-12T11:32:39;101965.59;;;9.35;55.16
48364;BME280;34170;54.364;18.582;2023-02-12T11:35:24;101964.88;;;8.44;58.71
48364;BME280;34170;54.364;18.582;2023-02-12T11:37:57;101951.91;;;8.67;58.63
48364;BME280;34170;54.364;18.582;2023-02-12T11:40:32;101967.44;;;8.76;59.28
48364;BME280;34170;54.364;18.582;2023-02-12T11:43:03;101952.28;;;8.61;59.33
48364;BME280;34170;54.364;18.582;2023-02-12T11:45:46;101951.19;;;8.49;60.70
48364;BME280;34170;54.364;18.582;2023-02-12T11:48:52;101954.72;;;8.33;61.67
48364;BME280;34170;54.364;18.582;2023-02-12T11:51:20;101947.56;;;8.34;61.84
48364;BME280;34170;54.364;18.582;2023-02-12T11:53:50;101948.00;;;8.42;62.63
48364;BME280;34170;54.364;18.582;2023-02-12T11:56:19;101957.81;;;8.57;63.00
48364;BME280;34170;54.364;18.582;2023-02-12T11:58:48;101960.38;;;8.75;62.28
48364;BME280;34170;54.364;18.582;2023-02-12T12:01:28;101966.88;;;8.85;62.08
48364;BME280;34170;54.364;18.582;2023-02-12T12:04:12;101959.22;;;8.79;63.20
48364;BME280;34170;54.364;18.582;2023-02-12T12:06:59;101944.50;;;8.56;64.59
48364;BME280;34170;54.364;18.582;2023-02-12T12:09:41;101944.53;;;8.40;66.47
48364;BME280;34170;54.364;18.582;2023-02-12T12:12:40;101932.38;;;8.18;68.20
48364;BME280;34170;54.364;18.582;2023-02-12T12:15:32;101931.56;;;8.32;68.63
48364;BME280;34170;54.364;18.582;2023-02-12T12:18:27;101935.09;;;8.02;69.85
48364;BME280;34170;54.364;18.582;2023-02-12T12:26:38;101917.31;;;8.01;72.38
48364;BME280;34170;54.364;18.582;2023-02-12T12:29:16;101925.09;;;7.42;78.58
48364;BME280;34170;54.364;18.582;2023-02-12T12:31:49;101923.88;;;7.32;80.85
48364;BME280;34170;54.364;18.582;2023-02-12T12:34:22;101910.53;;;7.15;81.68
48364;BME280;34170;54.364;18.582;2023-02-12T12:45:50;101886.19;;;7.03;83.54
48364;BME280;34170;54.364;18.582;2023-02-12T12:48:30;101884.63;;;7.15;84.82
48364;BME280;34170;54.364;18.582;2023-02-12T12:59:35;101866.31;;;6.92;89.02
48364;BME280;34170;54.364;18.582;2023-02-12T13:14:35;101884.06;;;6.42;95.22
48364;BME280;34170;54.364;18.582;2023-02-12T13:17:13;101906.50;;;6.57;94.64
48364;BME280;34170;54.364;18.582;2023-02-12T13:19:54;101901.63;;;6.98;92.50
48364;BME280;34170;54.364;18.582;2023-02-12T13:25:17;101912.31;;;6.98;92.69
48364;BME280;34170;54.364;18.582;2023-02-12T13:27:48;101908.59;;;6.85;93.77
48364;BME280;34170;54.364;18.582;2023-02-12T13:30:20;101907.97;;;6.62;94.48
48364;BME280;34170;54.364;18.582;2023-02-12T13:35:23;101895.81;;;6.39;98.05
48364;BME280;34170;54.364;18.582;2023-02-12T13:37:53;101883.84;;;6.29;98.71
48364;BME280;34170;54.364;18.582;2023-02-12T13:40:27;101898.69;;;6.70;97.05
48364;BME280;34170;54.364;18.582;2023-02-12T13:45:40;101906.44;;;6.74;96.02
48364;BME280;34170;54.364;18.582;2023-02-12T13:56:45;101895.22;;;6.15;100.00
48364;BME280;34170;54.364;18.582;2023-02-12T14:02:00;101887.47;;;6.28;100.00
48364;BME280;34170;54.364;18.582;2023-02-12T14:04:31;101879.94;;;6.01;100.00
48364;BME280;34170;54.364;18.582;2023-02-12T14:07:03;101885.75;;;6.27;100.00
48364;BME280;34170;54.364;18.582;2023-02-12T14:09:40;101879.06;;;6.36;100.00
48364;BME280;34170;54.364;18.582;2023-02-12T14:15:05;101885.44;;;6.33;100.00
48364;BME280;34170;54.364;18.582;2023-02-12T14:20:19;101894.75;;;6.42;100.00
48364;BME280;34170;54.364;18.582;2023-02-12T14:27:45;101889.91;;;6.50;100.00
48364;BME280;34170;54.364;18.582;2023-02-12T14:35:29;101875.03;;;6.62;100.00
48364;BME280;34170;54.364;18.582;2023-02-12T14:40:50;101868.28;;;6.55;100.00
48364;BME280;34170;54.364;18.582;2023-02-12T14:43:34;101881.50;;;6.40;100.00
48364;BME280;34170;54.364;18.582;2023-02-12T14:49:02;101887.19;;;6.85;100.00
48364;BME280;34170;54.364;18.582;2023-02-12T14:51:41;101889.88;;;6.85;100.00
48364;BME280;34170;54.364;18.582;2023-02-12T14:54:24;101889.53;;;6.91;100.00
48364;BME280;34170;54.364;18.582;2023-02-12T14:56:53;101900.16;;;6.75;100.00
48364;BME280;34170;54.364;18.582;2023-02-12T14:59:24;101923.50;;;6.89;100.00
48364;BME280;34170;54.364;18.582;2023-02-12T15:01:54;101912.44;;;7.13;100.00
48364;BME280;34170;54.364;18.582;2023-02-12T15:04:26;101914.28;;;7.28;100.00
48364;BME280;34170;54.364;18.582;2023-02-12T15:07:07;101914.19;;;7.14;100.00
48364;BME280;34170;54.364;18.582;2023-02-12T15:09:58;101897.91;;;7.01;100.00
48364;BME280;34170;54.364;18.582;2023-02-12T15:12:46;101889.25;;;6.80;100.00
48364;BME280;34170;54.364;18.582;2023-02-12T15:15:29;101879.44;;;6.63;100.00
48364;BME280;34170;54.364;18.582;2023-02-12T15:18:21;101879.81;;;6.73;100.00
48364;BME280;34170;54.364;18.582;2023-02-12T15:20:55;101875.06;;;6.78;100.00
48364;BME280;34170;54.364;18.582;2023-02-12T15:23:40;101866.88;;;6.81;100.00
48364;BME280;34170;54.364;18.582;2023-02-12T15:26:19;101878.22;;;6.86;100.00
48364;BME280;34170;54.364;18.582;2023-02-12T15:28:51;101884.19;;;6.74;100.00
48364;BME280;34170;54.364;18.582;2023-02-12T15:31:23;101889.13;;;6.81;100.00
48364;BME280;34170;54.364;18.582;2023-02-12T15:33:53;101891.03;;;6.79;100.00
48364;BME280;34170;54.364;18.582;2023-02-12T15:36:25;101874.41;;;6.57;100.00
48364;BME280;34170;54.364;18.582;2023-02-12T15:38:53;101871.47;;;6.61;100.00
48364;BME280;34170;54.364;18.582;2023-02-12T15:43:54;101861.28;;;6.52;100.00
48364;BME280;34170;54.364;18.582;2023-02-12T15:46:23;101847.56;;;6.42;100.00